Time;durP1;ratioP1;P1;durP2;ratioP2;P2;SDS_P1;SDS_P2;PMS_P1;PMS_P2;Temp;Humidity;BMP_temperature;BMP_pressure;BME280_temperature;BME280_humidity;BME280_pressure;Samples;Min_cycle;Max_cycle;Signal;HPM_P1;HPM_P2
2022/10/08 00:01:23;;;;;;;4.32;0.70;;;13.50;83.20;;;;;;4900806;29;20048;-87
2022/10/08 00:03:52;;;;;;;4.75;0.73;;;13.50;83.20;;;;;;4885196;29;20430;-87
2022/10/08 00:06:31;;;;;;;6.10;0.90;;;13.50;83.20;;;;;;4886040;29;20052;-87
2022/10/08 00:09:07;;;;;;;4.60;0.90;;;13.50;83.20;;;;;;4903426;29;20060;-87
2022/10/08 00:11:39;;;;;;;3.63;0.40;;;13.50;83.30;;;;;;4901153;29;20044;-87
2022/10/08 00:14:08;;;;;;;3.47;1.00;;;13.50;83.40;;;;;;4890276;29;20127;-86
2022/10/08 00:16:40;;;;;;;3.33;1.02;;;13.50;83.40;;;;;;4908234;29;20649;-87
2022/10/08 00:19:11;;;;;;;5.82;1.23;;;13.60;83.30;;;;;;4916294;29;20052;-87
2022/10/08 00:21:41;;;;;;;2.22;0.50;;;13.60;83.30;;;;;;4916094;29;20056;-86
2022/10/08 00:24:13;;;;;;;5.28;1.33;;;13.70;83.30;;;;;;4900253;29;20040;-86
2022/10/08 00:26:42;;;;;;;3.72;0.80;;;13.70;83.30;;;;;;4916234;29;20088;-86
2022/10/08 00:29:13;;;;;;;6.22;1.67;;;13.70;83.30;;;;;;4900882;29;20052;-86
2022/10/08 00:31:44;;;;;;;4.68;0.77;;;13.70;83.40;;;;;;4912520;29;20556;-84
2022/10/08 00:34:19;;;;;;;4.40;0.90;;;13.70;83.40;;;;;;4900088;29;20572;-83
2022/10/08 00:36:50;;;;;;;5.15;1.10;;;13.70;83.50;;;;;;4900027;29;20043;-86
2022/10/08 00:39:21;;;;;;;5.20;1.20;;;13.70;83.50;;;;;;4900606;29;20068;-87
2022/10/08 00:41:51;;;;;;;4.82;1.05;;;13.70;83.60;;;;;;4887150;29;20559;-86
2022/10/08 00:44:46;;;;;;;4.07;1.08;;;13.80;83.70;;;;;;4884636;29;20404;-86
2022/10/08 00:47:59;;;;;;;8.20;1.45;;;13.80;83.70;;;;;;4915167;29;20052;-87
2022/10/08 00:50:33;;;;;;;5.47;0.98;;;13.80;83.80;;;;;;4897394;29;20059;-86
2022/10/08 00:53:04;;;;;;;7.93;1.30;;;13.80;84.00;;;;;;4884379;29;20067;-86
2022/10/08 00:55:31;;;;;;;4.65;1.00;;;13.70;84.10;;;;;;4899714;29;20079;-84
2022/10/08 00:58:23;;;;;;;5.30;1.27;;;13.70;84.30;;;;;;4899547;29;20055;-84
2022/10/08 01:00:51;;;;;;;6.63;1.48;;;13.70;84.60;;;;;;4899684;29;20048;-84
2022/10/08 01:03:18;;;;;;;7.75;1.65;;;13.50;85.50;;;;;;4904893;29;20535;-84
2022/10/08 01:06:09;;;;;;;6.05;1.15;;;13.40;85.70;;;;;;4884298;29;20048;-84
2022/10/08 01:08:57;;;;;;;7.72;1.30;;;13.30;86.30;;;;;;4899764;29;20067;-85
2022/10/08 01:11:51;;;;;;;6.00;1.15;;;13.20;87.00;;;;;;4894333;29;20139;-84
2022/10/08 01:14:38;;;;;;;2.83;1.00;;;13.10;87.40;;;;;;4906365;29;20063;-86
2022/10/08 01:17:23;;;;;;;6.72;1.33;;;12.90;87.90;;;;;;4909254;29;20493;-85
2022/10/08 01:20:20;;;;;;;5.40;1.88;;;12.90;88.60;;;;;;4915541;29;20056;-86
2022/10/08 01:23:19;;;;;;;9.73;1.38;;;12.80;88.70;;;;;;4915105;29;20490;-86
2022/10/08 01:25:56;;;;;;;4.85;1.48;;;12.80;89.30;;;;;;4903410;29;20041;-86
2022/10/08 01:28:35;;;;;;;2.67;0.80;;;12.70;89.30;;;;;;4911514;29;20111;-86
2022/10/08 01:31:17;;;;;;;6.97;1.35;;;12.70;89.30;;;;;;4899842;29;20195;-86
2022/10/08 01:33:52;;;;;;;3.97;1.00;;;12.70;89.70;;;;;;4899143;29;20465;-85
2022/10/08 01:36:24;;;;;;;7.45;1.48;;;12.70;90.00;;;;;;4884336;29;20048;-86
2022/10/08 01:38:59;;;;;;;3.53;1.52;;;12.60;90.20;;;;;;4884183;29;20087;-86
2022/10/08 01:41:29;;;;;;;5.65;1.23;;;12.70;90.30;;;;;;4899399;29;20040;-86
2022/10/08 01:44:18;;;;;;;5.72;1.17;;;12.60;90.40;;;;;;4899463;29;20573;-86
2022/10/08 01:46:47;;;;;;;8.80;2.00;;;12.60;90.50;;;;;;4886568;29;20051;-86
2022/10/08 01:49:21;;;;;;;3.03;1.08;;;12.60;90.80;;;;;;4903169;29;20051;-86
2022/10/08 01:52:00;;;;;;;4.63;1.10;;;12.60;90.70;;;;;;4902794;29;20051;-86
2022/10/08 01:54:31;;;;;;;5.05;1.02;;;12.60;90.80;;;;;;4887334;29;20493;-86
2022/10/08 01:57:04;;;;;;;3.47;0.88;;;12.60;90.80;;;;;;4887410;29;20063;-86
2022/10/08 02:00:08;;;;;;;5.07;1.08;;;12.60;90.80;;;;;;4908765;29;20054;-86
2022/10/08 02:02:39;;;;;;;3.47;0.98;;;12.60;90.90;;;;;;4902519;29;20059;-86
2022/10/08 02:05:10;;;;;;;4.32;0.82;;;12.60;91.00;;;;;;4894727;29;20052;-88
2022/10/08 02:07:41;;;;;;;3.22;0.88;;;12.60;91.00;;;;;;4919167;29;20049;-86
2022/10/08 02:10:11;;;;;;;4.05;0.90;;;12.60;91.00;;;;;;4887254;29;20044;-87
2022/10/08 02:12:40;;;;;;;2.22;0.65;;;12.60;91.10;;;;;;4893768;29;20076;-86
2022/10/08 02:15:31;;;;;;;3.25;0.60;;;12.50;91.30;;;;;;4902583;29;20052;-87
2022/10/08 02:18:22;;;;;;;4.90;0.95;;;12.50;91.10;;;;;;4902853;29;20040;-87
2022/10/08 02:20:58;;;;;;;3.88;1.33;;;12.60;91.20;;;;;;4918702;29;20110;-87
2022/10/08 02:23:36;;;;;;;5.43;1.50;;;12.60;91.40;;;;;;4887032;29;20051;-86
2022/10/08 02:26:12;;;;;;;4.35;1.92;;;12.50;91.40;;;;;;4918028;29;20059;-87
2022/10/08 02:28:57;;;;;;;6.47;2.05;;;12.50;91.50;;;;;;4886994;29;20078;-86
2022/10/08 02:31:53;;;;;;;4.55;1.85;;;12.50;91.50;;;;;;4915490;29;20044;-86
2022/10/08 02:34:24;;;;;;;3.30;1.75;;;12.50;91.50;;;;;;4886651;29;20055;-84
2022/10/08 02:37:08;;;;;;;5.57;3.05;;;12.50;91.60;;;;;;4899866;29;20056;-84
2022/10/08 02:39:38;;;;;;;4.75;2.38;;;12.50;91.70;;;;;;4901885;29;20052;-84
2022/10/08 02:42:10;;;;;;;6.57;2.60;;;12.50;91.80;;;;;;4902033;29;20383;-84
2022/10/08 02:44:52;;;;;;;4.17;1.90;;;12.50;91.90;;;;;;4917705;29;20140;-84
2022/10/08 02:47:25;;;;;;;6.40;2.73;;;12.50;91.80;;;;;;4906453;29;20296;-84
2022/10/08 02:49:57;;;;;;;5.97;2.03;;;12.50;91.90;;;;;;4886508;29;20048;-84
2022/10/08 02:52:35;;;;;;;5.37;2.07;;;12.50;91.90;;;;;;4886387;29;20104;-84
2022/10/08 02:55:12;;;;;;;2.83;1.55;;;12.50;91.90;;;;;;4910185;29;20293;-84
2022/10/08 02:57:44;;;;;;;4.28;2.08;;;12.60;91.90;;;;;;4901101;29;20209;-84
2022/10/08 03:00:11;;;;;;;4.28;1.58;;;12.60;92.00;;;;;;4901630;29;20055;-84
2022/10/08 03:02:45;;;;;;;4.25;1.98;;;12.60;92.00;;;;;;4901796;29;20573;-83
2022/10/08 03:05:17;;;;;;;3.97;1.30;;;12.50;92.00;;;;;;4893502;29;20047;-84
2022/10/08 03:07:47;;;;;;;4.07;1.90;;;12.60;92.00;;;;;;4903470;29;20044;-84
2022/10/08 03:10:14;;;;;;;3.85;2.22;;;12.60;92.10;;;;;;4885959;29;20059;-85
2022/10/08 03:12:41;;;;;;;4.43;1.27;;;12.50;92.10;;;;;;4899067;29;20584;-85
2022/10/08 03:15:13;;;;;;;3.22;1.90;;;12.50;92.40;;;;;;4906618;29;20055;-85
2022/10/08 03:17:43;;;;;;;5.43;2.17;;;12.60;92.20;;;;;;4916768;29;20076;-84
2022/10/08 03:20:11;;;;;;;5.57;2.63;;;12.50;92.30;;;;;;4899774;29;20044;-85
2022/10/08 03:22:39;;;;;;;7.82;2.28;;;12.50;92.40;;;;;;4869854;29;20400;-85
2022/10/08 03:25:08;;;;;;;9.40;3.20;;;12.50;92.40;;;;;;4913255;29;20122;-85
2022/10/08 03:27:35;;;;;;;4.43;2.00;;;12.50;92.50;;;;;;4898046;29;20060;-84
2022/10/08 03:30:04;;;;;;;5.03;1.70;;;12.50;92.50;;;;;;4916908;29;20060;-85
2022/10/08 03:32:31;;;;;;;5.07;2.28;;;12.50;92.50;;;;;;4901010;29;20040;-85
2022/10/08 03:34:58;;;;;;;6.10;2.13;;;12.50;92.70;;;;;;4900842;29;20051;-84
2022/10/08 03:37:25;;;;;;;7.63;2.13;;;12.50;92.60;;;;;;4900909;29;20048;-85
2022/10/08 03:39:52;;;;;;;3.83;1.70;;;12.50;92.60;;;;;;4885547;29;20052;-85
2022/10/08 03:42:19;;;;;;;3.97;1.77;;;12.50;92.60;;;;;;4900749;29;20049;-85
2022/10/08 03:44:49;;;;;;;7.47;1.85;;;12.40;92.60;;;;;;4901255;29;20550;-85
2022/10/08 03:47:17;;;;;;;3.03;1.58;;;12.40;92.70;;;;;;4916243;29;20056;-84
2022/10/08 03:49:44;;;;;;;6.25;1.85;;;12.40;92.80;;;;;;4902041;29;20044;-85
2022/10/08 03:52:11;;;;;;;4.05;1.90;;;12.40;92.90;;;;;;4900358;29;20115;-85
2022/10/08 03:54:38;;;;;;;4.82;1.85;;;12.40;92.90;;;;;;4916153;29;20501;-85
2022/10/08 03:57:05;;;;;;;4.50;1.75;;;12.40;93.00;;;;;;4916321;29;20040;-85
2022/10/08 03:59:32;;;;;;;6.07;1.60;;;12.40;92.90;;;;;;4916050;29;20063;-83
2022/10/08 04:01:59;;;;;;;5.32;1.88;;;12.40;93.00;;;;;;4900585;29;20055;-84
2022/10/08 04:04:26;;;;;;;4.45;1.52;;;12.40;92.90;;;;;;4896960;29;20044;-84
2022/10/08 04:06:53;;;;;;;2.25;1.23;;;12.40;92.90;;;;;;4900373;29;20067;-84
2022/10/08 04:09:20;;;;;;;6.20;1.70;;;12.40;92.90;;;;;;4915410;29;20052;-84
2022/10/08 04:11:47;;;;;;;5.72;2.05;;;12.40;92.90;;;;;;4915796;29;20044;-83
2022/10/08 04:14:14;;;;;;;4.93;1.50;;;12.40;93.10;;;;;;4900174;29;20051;-84
2022/10/08 04:16:41;;;;;;;3.95;2.00;;;12.40;93.10;;;;;;4900214;29;20119;-83
2022/10/08 04:19:10;;;;;;;2.42;1.30;;;12.30;93.10;;;;;;4886981;29;20048;-84
2022/10/08 04:21:37;;;;;;;6.13;1.90;;;12.40;93.40;;;;;;4900337;29;20043;-83
2022/10/08 04:24:04;;;;;;;6.32;2.05;;;12.40;93.20;;;;;;4900172;29;20138;-83
2022/10/08 04:26:31;;;;;;;6.43;1.88;;;12.40;93.30;;;;;;4900017;29;20088;-84
2022/10/08 04:28:58;;;;;;;5.75;1.95;;;12.30;93.20;;;;;;4892675;29;20527;-84
2022/10/08 04:31:25;;;;;;;3.55;1.92;;;12.30;93.30;;;;;;4915852;29;20476;-83
2022/10/08 04:33:53;;;;;;;5.68;2.00;;;12.30;93.30;;;;;;4899870;29;20115;-84
2022/10/08 04:36:24;;;;;;;5.00;2.08;;;12.30;93.30;;;;;;4884381;29;20051;-83
2022/10/08 04:38:51;;;;;;;7.68;3.20;;;12.30;93.40;;;;;;4899921;29;20051;-83
2022/10/08 04:41:23;;;;;;;6.93;2.92;;;12.20;93.50;;;;;;4899765;29;20040;-83
2022/10/08 04:43:52;;;;;;;5.03;2.78;;;12.20;93.60;;;;;;4900050;29;20052;-83
2022/10/08 04:46:21;;;;;;;9.38;3.10;;;12.20;93.60;;;;;;4884702;29;20095;-83
2022/10/08 04:48:52;;;;;;;9.30;3.08;;;12.20;93.60;;;;;;4887838;29;20040;-83
2022/10/08 04:51:22;;;;;;;4.40;2.10;;;12.20;93.60;;;;;;4899775;29;20078;-83
2022/10/08 04:53:49;;;;;;;7.05;2.70;;;12.30;93.60;;;;;;4884459;29;20055;-84
2022/10/08 04:56:21;;;;;;;8.25;3.50;;;12.30;93.70;;;;;;4916545;29;20574;-84
2022/10/08 04:58:49;;;;;;;8.10;3.20;;;12.20;93.70;;;;;;4914371;29;20056;-83
2022/10/08 05:01:18;;;;;;;8.20;3.45;;;12.20;93.70;;;;;;4887337;29;20072;-84
2022/10/08 05:03:50;;;;;;;7.32;3.00;;;12.20;93.70;;;;;;4886991;29;20100;-84
2022/10/08 05:06:19;;;;;;;6.60;2.33;;;12.30;93.70;;;;;;4911789;29;20115;-83
2022/10/08 05:08:50;;;;;;;5.78;2.60;;;12.30;93.70;;;;;;4884391;29;20412;-84
2022/10/08 05:11:18;;;;;;;9.00;2.72;;;12.30;93.70;;;;;;4912093;29;20076;-83
2022/10/08 05:13:52;;;;;;;6.32;3.03;;;12.30;93.60;;;;;;4915150;29;20056;-83
2022/10/08 05:16:24;;;;;;;6.07;2.55;;;12.30;93.60;;;;;;4911328;29;20413;-83
2022/10/08 05:18:52;;;;;;;7.30;2.65;;;12.30;93.60;;;;;;4915088;29;20075;-83
2022/10/08 05:21:22;;;;;;;7.13;3.97;;;12.30;93.60;;;;;;4908045;29;20043;-83
2022/10/08 05:23:57;;;;;;;7.63;2.88;;;12.30;93.70;;;;;;4919123;29;20222;-84
2022/10/08 05:26:27;;;;;;;5.72;3.30;;;12.30;93.70;;;;;;4905116;29;20052;-84
2022/10/08 05:29:14;;;;;;;6.97;3.45;;;12.30;93.90;;;;;;4903643;29;20044;-83
2022/10/08 05:31:41;;;;;;;5.70;2.72;;;12.30;93.70;;;;;;4894022;29;20148;-84
2022/10/08 05:34:08;;;;;;;8.63;3.83;;;12.30;93.70;;;;;;4889110;29;20057;-83
2022/10/08 05:36:36;;;;;;;8.63;2.53;;;12.30;93.70;;;;;;4884183;29;20512;-84
2022/10/08 05:39:04;;;;;;;6.00;2.53;;;12.40;93.70;;;;;;4905952;29;20049;-84
2022/10/08 05:41:34;;;;;;;8.60;3.33;;;12.40;93.70;;;;;;4896787;29;20045;-85
2022/10/08 05:44:01;;;;;;;5.85;2.80;;;12.40;93.90;;;;;;4902955;29;20136;-83
2022/10/08 05:46:29;;;;;;;4.22;1.70;;;12.40;93.60;;;;;;4899350;29;20079;-84
2022/10/08 05:48:58;;;;;;;5.88;2.95;;;12.40;93.60;;;;;;4902956;29;20471;-83
2022/10/08 05:51:27;;;;;;;5.18;2.63;;;12.40;93.60;;;;;;4878527;29;20139;-83
2022/10/08 05:53:57;;;;;;;8.63;3.40;;;12.40;93.60;;;;;;4908059;29;20045;-84
2022/10/08 05:56:25;;;;;;;6.47;3.15;;;12.40;93.60;;;;;;4909315;29;20520;-83
2022/10/08 05:58:53;;;;;;;6.75;4.18;;;12.40;93.60;;;;;;4899283;29;20413;-84
2022/10/08 06:01:25;;;;;;;7.05;4.00;;;12.40;93.70;;;;;;4897616;29;20617;-84
2022/10/08 06:03:54;;;;;;;8.63;3.65;;;12.40;93.70;;;;;;4896333;29;20060;-83
2022/10/08 06:06:25;;;;;;;7.70;4.38;;;12.40;93.70;;;;;;4883765;29;20055;-84
2022/10/08 06:09:00;;;;;;;6.00;3.20;;;12.40;93.70;;;;;;4899741;29;20100;-84
2022/10/08 06:11:29;;;;;;;5.55;3.70;;;12.40;93.70;;;;;;4881399;29;20140;-84
2022/10/08 06:13:58;;;;;;;6.20;4.38;;;12.40;93.70;;;;;;4898622;29;20060;-84
2022/10/08 06:16:26;;;;;;;8.85;4.85;;;12.40;93.80;;;;;;4899931;29;20053;-84
2022/10/08 06:18:54;;;;;;;8.45;5.22;;;12.40;93.90;;;;;;4898551;29;20274;-83
2022/10/08 06:21:23;;;;;;;9.00;4.55;;;12.40;94.00;;;;;;4908870;29;20055;-83
2022/10/08 06:24:04;;;;;;;9.38;4.53;;;12.30;93.90;;;;;;4907704;29;20084;-83
2022/10/08 06:26:35;;;;;;;6.95;3.38;;;12.40;93.90;;;;;;4904571;29;20153;-84
2022/10/08 06:29:13;;;;;;;5.57;4.28;;;12.40;93.90;;;;;;4884061;29;20045;-84
2022/10/08 06:31:41;;;;;;;12.70;6.80;;;12.40;94.00;;;;;;4899065;29;20151;-83
2022/10/08 06:34:08;;;;;;;13.35;6.53;;;12.30;94.10;;;;;;4901769;29;20056;-83
2022/10/08 06:36:36;;;;;;;10.65;6.68;;;12.30;94.10;;;;;;4889592;29;20118;-84
2022/10/08 06:39:13;;;;;;;13.38;5.82;;;12.30;94.20;;;;;;4901983;29;20572;-83
2022/10/08 06:41:41;;;;;;;16.02;6.28;;;12.30;94.20;;;;;;4889164;29;20067;-84
2022/10/08 06:44:12;;;;;;;9.38;5.50;;;12.30;94.20;;;;;;4903878;29;20047;-84
2022/10/08 06:46:39;;;;;;;10.48;5.07;;;12.30;94.20;;;;;;4904091;29;20045;-83
2022/10/08 06:49:06;;;;;;;9.95;5.75;;;12.30;94.20;;;;;;4903453;29;20173;-86
2022/10/08 06:51:34;;;;;;;8.02;4.82;;;12.30;94.20;;;;;;4896838;29;20068;-86
2022/10/08 06:54:01;;;;;;;9.25;5.63;;;12.30;94.20;;;;;;4903661;29;20127;-86
2022/10/08 06:56:36;;;;;;;10.00;4.75;;;12.40;94.20;;;;;;4916417;29;20389;-85
2022/10/08 06:59:04;;;;;;;9.68;6.10;;;12.30;94.20;;;;;;4904977;29;20115;-86
2022/10/08 07:01:33;;;;;;;9.57;5.97;;;12.30;94.30;;;;;;4901162;29;20485;-85
2022/10/08 07:04:01;;;;;;;9.05;5.50;;;12.30;94.30;;;;;;4916970;29;20048;-85
2022/10/08 07:06:28;;;;;;;7.57;5.05;;;12.20;94.30;;;;;;4901080;29;20055;-86
2022/10/08 07:08:58;;;;;;;9.88;4.57;;;12.10;94.40;;;;;;4914307;29;20041;-85
2022/10/08 07:11:30;;;;;;;8.27;5.20;;;12.10;94.50;;;;;;4900876;29;20048;-86
2022/10/08 07:14:01;;;;;;;8.27;4.53;;;12.10;94.70;;;;;;4908098;29;20044;-86
2022/10/08 07:16:29;;;;;;;9.20;4.57;;;12.10;94.50;;;;;;4898654;29;20058;-86
2022/10/08 07:18:57;;;;;;;6.93;4.20;;;12.10;94.50;;;;;;4903275;29;20067;-85
2022/10/08 07:21:25;;;;;;;7.88;4.15;;;12.10;94.50;;;;;;4901336;29;20056;-86
2022/10/08 07:23:57;;;;;;;9.73;4.57;;;12.10;94.50;;;;;;4906191;29;20457;-86
2022/10/08 07:26:26;;;;;;;6.68;3.92;;;12.10;94.50;;;;;;4885918;29;20098;-86
2022/10/08 07:29:03;;;;;;;8.18;3.75;;;12.20;94.50;;;;;;4899412;29;20098;-86
2022/10/08 07:31:33;;;;;;;10.82;4.05;;;12.20;94.40;;;;;;4898520;29;20044;-86
2022/10/08 07:34:02;;;;;;;18.20;5.35;;;12.20;94.40;;;;;;4888932;29;20048;-85
2022/10/08 07:36:30;;;;;;;19.77;4.65;;;12.20;94.40;;;;;;4912128;29;20413;-86
2022/10/08 07:39:00;;;;;;;11.55;4.90;;;12.20;94.40;;;;;;4899551;29;20052;-86
2022/10/08 07:41:28;;;;;;;12.40;4.55;;;12.30;94.40;;;;;;4886497;29;20072;-87
2022/10/08 07:44:00;;;;;;;6.72;3.45;;;12.30;94.40;;;;;;4914741;29;20052;-86
2022/10/08 07:46:33;;;;;;;6.07;3.15;;;12.30;94.30;;;;;;4916026;29;20051;-86
2022/10/08 07:49:11;;;;;;;5.97;3.00;;;12.40;94.40;;;;;;4898353;29;20058;-86
2022/10/08 07:51:38;;;;;;;5.82;3.20;;;12.40;94.30;;;;;;4916651;29;20072;-86
2022/10/08 07:54:07;;;;;;;5.15;3.03;;;12.40;94.20;;;;;;4897151;29;20052;-85
2022/10/08 07:56:35;;;;;;;5.60;2.92;;;12.50;94.30;;;;;;4913086;29;20048;-85
2022/10/08 07:59:03;;;;;;;8.32;2.47;;;12.50;94.20;;;;;;4900626;29;20044;-86
2022/10/08 08:01:32;;;;;;;5.10;2.22;;;12.60;94.10;;;;;;4892352;29;20044;-86
2022/10/08 08:04:02;;;;;;;7.03;2.83;;;12.60;94.00;;;;;;4906633;29;20044;-86
2022/10/08 08:06:32;;;;;;;4.15;1.92;;;12.70;94.00;;;;;;4887524;29;20052;-86
2022/10/08 08:09:02;;;;;;;4.07;1.48;;;12.70;94.00;;;;;;4908287;29;20041;-85
2022/10/08 08:11:30;;;;;;;5.30;1.73;;;12.70;93.90;;;;;;4915850;29;20048;-85
2022/10/08 08:13:57;;;;;;;4.07;0.88;;;12.80;93.80;;;;;;4906608;29;20453;-85
2022/10/08 08:16:28;;;;;;;9.75;2.00;;;12.80;93.70;;;;;;4915604;29;20138;-84
2022/10/08 08:18:58;;;;;;;3.67;0.82;;;12.90;93.60;;;;;;4916835;29;20149;-84
2022/10/08 08:21:34;;;;;;;4.47;1.00;;;12.90;93.50;;;;;;4884301;29;20183;-86
2022/10/08 08:24:10;;;;;;;5.18;0.80;;;13.00;93.40;;;;;;4891886;29;20116;-86
2022/10/08 08:26:40;;;;;;;4.20;0.77;;;13.00;93.20;;;;;;4900871;29;20048;-87
2022/10/08 08:29:12;;;;;;;4.22;0.60;;;13.00;93.10;;;;;;4900421;29;20052;-87
2022/10/08 08:31:42;;;;;;;5.28;0.80;;;13.10;93.20;;;;;;4915186;29;20139;-86
2022/10/08 08:34:20;;;;;;;5.63;0.70;;;13.10;92.90;;;;;;4906308;29;20045;-86
2022/10/08 08:36:50;;;;;;;3.50;0.70;;;13.10;92.60;;;;;;4886742;29;20496;-86
2022/10/08 08:39:20;;;;;;;4.20;0.73;;;13.20;92.50;;;;;;4894827;29;20075;-87
2022/10/08 08:42:06;;;;;;;1.75;0.38;;;13.20;92.30;;;;;;4915600;29;20052;-86
2022/10/08 08:44:39;;;;;;;3.38;0.65;;;13.30;92.40;;;;;;4916946;29;20044;-86
2022/10/08 08:47:18;;;;;;;6.78;0.75;;;13.30;91.90;;;;;;4907767;29;20053;-87
2022/10/08 08:49:59;;;;;;;3.78;0.60;;;13.30;91.60;;;;;;4894409;29;20111;-86
2022/10/08 08:52:37;;;;;;;6.07;0.50;;;13.30;91.60;;;;;;4890341;29;20424;-86
2022/10/08 08:55:13;;;;;;;2.85;0.50;;;13.40;91.40;;;;;;4899750;29;20405;-86
2022/10/08 08:57:56;;;;;;;4.00;0.50;;;13.40;91.30;;;;;;4884350;29;20063;-86
2022/10/08 09:00:33;;;;;;;2.53;0.35;;;13.50;91.10;;;;;;4915309;29;20083;-87
2022/10/08 09:03:05;;;;;;;4.07;0.63;;;13.50;91.00;;;;;;4899376;29;20052;-86
2022/10/08 09:05:38;;;;;;;3.97;0.40;;;13.50;90.80;;;;;;4887407;29;20055;-86
2022/10/08 09:08:38;;;;;;;2.50;0.40;;;13.50;90.60;;;;;;4900348;29;20052;-86
2022/10/08 09:11:05;;;;;;;3.08;0.38;;;13.60;90.60;;;;;;4908711;29;20052;-86
2022/10/08 09:13:56;;;;;;;3.17;0.50;;;13.60;90.60;;;;;;4899434;29;20048;-87
2022/10/08 09:16:26;;;;;;;5.57;0.60;;;13.60;90.40;;;;;;4904383;29;20056;-86
2022/10/08 09:18:54;;;;;;;3.20;0.43;;;13.60;90.40;;;;;;4892100;29;20060;-86
2022/10/08 09:21:23;;;;;;;5.22;1.13;;;13.70;89.70;;;;;;4899549;29;20055;-86
2022/10/08 09:23:50;;;;;;;2.88;0.43;;;13.80;89.00;;;;;;4902794;29;20048;-86
2022/10/08 09:26:44;;;;;;;3.25;0.40;;;13.80;88.50;;;;;;4902949;29;20489;-86
2022/10/08 09:29:31;;;;;;;5.72;0.63;;;13.90;88.60;;;;;;4897915;29;20040;-86
2022/10/08 09:31:58;;;;;;;2.92;0.40;;;14.00;88.50;;;;;;4899577;29;20044;-86
2022/10/08 09:34:26;;;;;;;2.33;0.30;;;14.10;88.30;;;;;;4882184;29;20076;-86
2022/10/08 09:37:03;;;;;;;2.17;0.40;;;14.20;87.60;;;;;;4895884;29;20351;-86
2022/10/08 09:39:33;;;;;;;5.30;0.80;;;14.50;86.70;;;;;;4912152;29;20044;-85
2022/10/08 09:42:06;;;;;;;4.43;0.45;;;14.70;86.40;;;;;;4907231;29;20107;-86
2022/10/08 09:44:47;;;;;;;6.13;0.70;;;14.90;85.30;;;;;;4884051;29;20076;-87
2022/10/08 09:47:23;;;;;;;6.00;0.52;;;15.00;83.20;;;;;;4906618;29;20419;-86
2022/10/08 09:50:28;;;;;;;1.90;0.43;;;15.00;82.40;;;;;;4914905;29;20465;-86
2022/10/08 09:52:55;;;;;;;3.17;0.40;;;15.10;82.00;;;;;;4850825;29;20046;-87
2022/10/08 09:55:30;;;;;;;1.13;0.40;;;15.00;81.70;;;;;;4857893;29;20132;-87
2022/10/08 09:57:59;;;;;;;5.30;0.60;;;14.90;82.50;;;;;;4888467;29;21021;-86
2022/10/08 10:00:35;;;;;;;4.18;0.60;;;14.70;83.20;;;;;;4899096;29;20078;-87
2022/10/08 10:03:14;;;;;;;2.80;0.30;;;14.50;83.30;;;;;;4883974;29;20131;-86
2022/10/08 10:05:42;;;;;;;0.98;0.30;;;14.30;83.90;;;;;;4883713;29;20052;-86
2022/10/08 10:08:44;;;;;;;0.85;0.28;;;14.20;84.00;;;;;;4887942;29;20044;-87
2022/10/08 10:11:17;;;;;;;2.90;0.30;;;14.20;84.00;;;;;;4902655;29;20386;-86
2022/10/08 10:13:47;;;;;;;2.08;0.43;;;14.00;84.00;;;;;;4903016;29;20055;-85
2022/10/08 10:16:31;;;;;;;2.13;0.20;;;13.90;84.80;;;;;;4918053;29;20052;-87
2022/10/08 10:19:03;;;;;;;1.90;0.20;;;13.90;84.20;;;;;;4908684;29;20052;-86
2022/10/08 10:21:37;;;;;;;2.50;0.20;;;13.90;84.20;;;;;;4902491;29;20085;-86
2022/10/08 10:24:27;;;;;;;3.28;0.38;;;14.00;84.10;;;;;;4908944;29;20052;-86
2022/10/08 10:26:59;;;;;;;4.15;0.52;;;14.10;83.20;;;;;;4901984;29;20131;-86
2022/10/08 10:29:37;;;;;;;1.88;0.30;;;14.20;82.60;;;;;;4887065;29;20047;-86
2022/10/08 10:32:23;;;;;;;3.45;0.60;;;14.40;82.20;;;;;;4902458;29;20054;-86
2022/10/08 10:35:27;;;;;;;3.10;0.30;;;14.60;81.50;;;;;;4902658;29;20056;-86
2022/10/08 10:38:16;;;;;;;3.13;0.50;;;14.90;81.00;;;;;;4877106;29;20108;-86
2022/10/08 10:41:08;;;;;;;1.92;0.32;;;15.10;80.60;;;;;;4917764;29;20060;-84
2022/10/08 10:43:44;;;;;;;3.13;0.40;;;15.10;80.70;;;;;;4892434;29;20044;-84
2022/10/08 10:46:17;;;;;;;2.88;0.40;;;15.20;80.40;;;;;;4901901;29;20049;-84
2022/10/08 10:48:44;;;;;;;4.78;0.57;;;15.20;80.60;;;;;;4917195;29;20052;-84
2022/10/08 10:51:26;;;;;;;3.65;0.50;;;15.10;80.40;;;;;;4901663;29;20412;-83
2022/10/08 10:54:23;;;;;;;2.28;0.50;;;15.00;80.80;;;;;;4903388;29;20053;-84
2022/10/08 10:56:56;;;;;;;2.13;0.40;;;14.90;81.10;;;;;;4901786;29;20178;-87
2022/10/08 10:59:40;;;;;;;1.58;0.30;;;14.80;80.90;;;;;;4917367;29;20048;-87
2022/10/08 11:02:15;;;;;;;0.93;0.30;;;14.60;81.10;;;;;;4896237;29;20052;-87
2022/10/08 11:04:58;;;;;;;2.63;0.40;;;14.40;81.40;;;;;;4886430;29;20056;-86
2022/10/08 11:07:40;;;;;;;2.75;0.50;;;14.20;81.80;;;;;;4894274;29;20135;-86
2022/10/08 11:10:19;;;;;;;3.28;0.60;;;14.10;82.40;;;;;;4893974;29;20409;-86
2022/10/08 11:13:04;;;;;;;1.65;0.38;;;14.10;82.30;;;;;;4911396;29;20052;-87
2022/10/08 11:15:42;;;;;;;5.70;0.50;;;14.10;82.50;;;;;;4912648;29;20052;-86
2022/10/08 11:18:20;;;;;;;2.22;0.40;;;14.20;82.80;;;;;;4903701;29;20139;-87
2022/10/08 11:21:01;;;;;;;3.83;0.75;;;14.20;82.90;;;;;;4899126;29;20056;-86
2022/10/08 11:23:34;;;;;;;4.20;0.50;;;14.20;82.90;;;;;;4910222;29;20109;-86
2022/10/08 11:26:12;;;;;;;2.38;0.50;;;14.30;83.10;;;;;;4916907;29;20441;-86
2022/10/08 11:29:27;;;;;;;1.92;0.50;;;14.20;83.10;;;;;;4907450;29;20139;-87
2022/10/08 11:31:54;;;;;;;7.30;0.52;;;14.30;83.10;;;;;;4901652;29;20040;-87
2022/10/08 11:34:23;;;;;;;4.10;0.60;;;14.30;83.00;;;;;;4890039;29;20056;-87
2022/10/08 11:37:07;;;;;;;1.95;0.30;;;14.40;83.00;;;;;;4893807;29;20052;-87
2022/10/08 11:40:16;;;;;;;3.10;0.50;;;14.60;83.00;;;;;;4901745;29;20048;-87
2022/10/08 11:42:51;;;;;;;4.00;0.43;;;14.80;82.60;;;;;;4891235;29;20048;-87
2022/10/08 11:45:21;;;;;;;2.92;0.40;;;15.00;82.10;;;;;;4901163;29;20044;-86
2022/10/08 11:47:51;;;;;;;3.53;0.50;;;15.20;81.60;;;;;;4915429;29;20045;-87
2022/10/08 11:50:31;;;;;;;0.98;0.25;;;15.30;81.50;;;;;;4904945;29;20040;-86
2022/10/08 11:53:14;;;;;;;4.40;0.88;;;15.20;81.00;;;;;;4887521;29;20048;-86
2022/10/08 11:55:50;;;;;;;2.90;0.50;;;15.10;80.80;;;;;;4913267;29;20048;-86
2022/10/08 11:58:26;;;;;;;4.10;0.60;;;15.10;80.90;;;;;;4891319;29;20128;-86
2022/10/08 12:01:14;;;;;;;4.80;0.40;;;15.00;81.00;;;;;;4904540;29;20577;-85
2022/10/08 12:03:42;;;;;;;5.38;0.93;;;15.00;80.90;;;;;;4917941;29;20389;-84
2022/10/08 12:06:51;;;;;;;2.30;0.30;;;15.10;80.80;;;;;;4900393;29;20139;-84
2022/10/08 12:10:00;;;;;;;3.13;0.47;;;15.10;80.50;;;;;;4897972;29;20044;-84
2022/10/08 12:13:01;;;;;;;6.13;0.50;;;15.10;80.20;;;;;;4889127;29;20405;-85
2022/10/08 12:15:32;;;;;;;2.58;0.40;;;15.20;79.80;;;;;;4901426;29;20425;-89
2022/10/08 12:18:21;;;;;;;3.53;0.52;;;15.30;79.20;;;;;;4898669;29;20501;-91
2022/10/08 12:21:19;;;;;;;1.63;0.43;;;15.40;78.30;;;;;;4903482;29;20060;-90
2022/10/08 12:23:46;;;;;;;3.08;0.55;;;15.70;76.70;;;;;;4897189;29;20059;-85
2022/10/08 12:26:24;;;;;;;1.95;0.50;;;15.90;76.00;;;;;;4890468;29;20040;-90
2022/10/08 12:28:54;;;;;;;7.38;0.50;;;16.10;75.30;;;;;;4912406;29;20486;-85
2022/10/08 12:31:38;;;;;;;4.90;0.30;;;16.20;74.00;;;;;;4909571;29;20134;-84
2022/10/08 12:34:20;;;;;;;3.03;0.38;;;16.40;73.10;;;;;;4900111;29;20112;-85
2022/10/08 12:37:11;;;;;;;3.47;0.80;;;16.40;73.00;;;;;;4886684;29;20078;-88
2022/10/08 12:39:44;;;;;;;5.88;0.47;;;16.30;71.60;;;;;;4900079;29;20055;-84
2022/10/08 12:42:34;;;;;;;3.33;0.38;;;16.30;71.40;;;;;;4900199;29;20414;-86
2022/10/08 12:45:06;;;;;;;3.22;0.40;;;16.20;70.70;;;;;;4915507;29;20148;-85
2022/10/08 12:48:13;;;;;;;2.67;0.47;;;16.20;71.00;;;;;;4900177;29;20441;-84
2022/10/08 12:50:43;;;;;;;2.25;0.60;;;16.20;71.10;;;;;;4872674;29;20108;-84
2022/10/08 12:53:14;;;;;;;3.47;0.52;;;16.20;70.60;;;;;;4900254;29;20510;-87
2022/10/08 12:55:52;;;;;;;5.28;1.13;;;16.30;69.50;;;;;;4900354;29;20056;-86
2022/10/08 12:58:28;;;;;;;3.13;0.50;;;16.40;69.50;;;;;;4900313;29;20052;-85
2022/10/08 13:01:02;;;;;;;4.10;0.63;;;16.50;67.80;;;;;;4900002;29;20492;-84
2022/10/08 13:03:30;;;;;;;;;;;16.50;67.90;;;;;;4892967;29;20138;-87
2022/10/08 13:05:57;;;;;;;5.53;0.50;;;16.40;67.70;;;;;;4900015;29;20039;-84
2022/10/08 13:08:37;;;;;;;4.50;0.80;;;16.40;67.70;;;;;;4899446;29;20443;-83
2022/10/08 13:11:12;;;;;;;6.63;0.68;;;16.30;67.10;;;;;;4884394;29;20143;-87
2022/10/08 13:13:39;;;;;;;7.63;1.00;;;16.30;67.40;;;;;;4899866;29;20059;-86
2022/10/08 13:16:06;;;;;;;5.28;0.70;;;16.30;67.10;;;;;;4907559;29;20070;-87
2022/10/08 13:18:36;;;;;;;3.78;0.57;;;16.30;66.40;;;;;;4899727;29;20048;-86
2022/10/08 13:21:06;;;;;;;4.72;0.50;;;16.20;66.50;;;;;;4884207;29;20048;-82
2022/10/08 13:23:39;;;;;;;4.30;0.68;;;16.20;66.20;;;;;;4907059;29;20409;-82